DAL2990 KEWR-KHSV
Flight info
| Callsign | DAL2990 |
|---|---|
| Flight time | N/A |
| Altitude | 40000 |
| Route | LANNA J48 MOL HLRRY EMAHH RQZ |
| Aircraft | A333/H-SDE3GHIJ2J3J5M1RVWXY/LB2D1 |
Departure
| Time | N/A |
|---|---|
| Airport | Newark Liberty International Airport (KEWR) |
Arrival
| Time | 2026-05-05 18:06 |
|---|---|
| Airport | Huntsville International Airport (KHSV) |
| Time | Latitude | Longitude | Altitude | Speed | Heading |
|---|---|---|---|---|---|
| 2026-05-05 18:01 | 34.87027 | -86.75508 | 2520 ft | 256 kts | 234° |
| 2026-05-05 18:01 | 34.85777 | -86.77059 | 2468 ft | 257 kts | 213° |
| 2026-05-05 18:01 | 34.84172 | -86.77814 | 2465 ft | 241 kts | 190° |
| 2026-05-05 18:01 | 34.82574 | -86.77935 | 2473 ft | 216 kts | 179° |
| 2026-05-05 18:02 | 34.81167 | -86.77914 | 2464 ft | 188 kts | 180° |
| 2026-05-05 18:02 | 34.79939 | -86.77926 | 2454 ft | 164 kts | 181° |
| 2026-05-05 18:02 | 34.78854 | -86.77945 | 2448 ft | 149 kts | 182° |
| 2026-05-05 18:02 | 34.77822 | -86.77968 | 2464 ft | 149 kts | 182° |
| 2026-05-05 18:03 | 34.76780 | -86.77992 | 2471 ft | 150 kts | 182° |
| 2026-05-05 18:03 | 34.75731 | -86.78014 | 2469 ft | 151 kts | 181° |
| 2026-05-05 18:03 | 34.74704 | -86.78035 | 2474 ft | 149 kts | 181° |
| 2026-05-05 18:03 | 34.73658 | -86.78054 | 2315 ft | 150 kts | 181° |
| 2026-05-05 18:04 | 34.72615 | -86.78073 | 2099 ft | 150 kts | 181° |
| 2026-05-05 18:04 | 34.71572 | -86.78093 | 1883 ft | 149 kts | 181° |
| 2026-05-05 18:04 | 34.70534 | -86.78113 | 1689 ft | 149 kts | 181° |
| 2026-05-05 18:04 | 34.69499 | -86.78133 | 1475 ft | 148 kts | 181° |
| 2026-05-05 18:05 | 34.68481 | -86.78152 | 1292 ft | 148 kts | 181° |
| 2026-05-05 18:05 | 34.67452 | -86.78172 | 1095 ft | 147 kts | 181° |
| 2026-05-05 18:05 | 34.66427 | -86.78192 | 900 ft | 147 kts | 181° |
| 2026-05-05 18:05 | 34.65394 | -86.78211 | 698 ft | 147 kts | 181° |
| 2026-05-05 18:06 | 34.64437 | -86.78229 | 637 ft | 114 kts | 181° |
| 2026-05-05 18:06 | 34.64110 | -86.78235 | 643 ft | 26 kts | 181° |